createdAt,value
2022-11-03T00:00:12.468Z,99759.89
2022-11-03T00:02:42.895Z,99758.11
2022-11-03T00:05:32.682Z,99754.70
2022-11-03T00:08:06.214Z,99758.98
2022-11-03T00:10:38.208Z,99759.89
2022-11-03T00:13:10.247Z,99767.66
2022-11-03T00:15:44.960Z,99764.19
2022-11-03T00:18:17.010Z,99762.43
2022-11-03T00:20:59.873Z,99782.25
2022-11-03T00:23:34.888Z,99770.19
2022-11-03T00:26:15.006Z,99767.63
2022-11-03T00:28:49.683Z,99764.15
2022-11-03T00:31:27.334Z,99762.47
2022-11-03T00:34:00.536Z,99775.45
2022-11-03T00:36:38.220Z,99779.03
2022-11-03T00:39:11.163Z,99773.89
2022-11-03T00:41:43.530Z,99769.55
2022-11-03T00:44:15.492Z,99770.44
2022-11-03T00:46:47.605Z,99775.58
2022-11-03T00:49:19.693Z,99766.94
2022-11-03T00:51:51.737Z,99771.23
2022-11-03T00:54:23.634Z,99767.77
2022-11-03T00:56:55.727Z,99769.45
2022-11-03T00:59:27.585Z,99769.36
2022-11-03T01:01:59.952Z,99775.38
2022-11-03T01:04:49.679Z,99774.48
2022-11-03T01:07:21.867Z,99778.75
2022-11-03T01:09:53.921Z,99783.92
2022-11-03T01:12:25.856Z,99780.55
2022-11-03T01:14:57.790Z,99788.30
2022-11-03T01:17:30.335Z,99799.48
2022-11-03T01:20:02.330Z,99795.23
2022-11-03T01:22:34.513Z,99806.47
2022-11-03T01:25:06.952Z,99810.83
2022-11-03T01:27:39.206Z,99800.52
2022-11-03T01:30:12.016Z,99803.22
2022-11-03T01:32:44.087Z,99800.67
2022-11-03T01:35:16.111Z,99804.16
2022-11-03T01:37:48.079Z,99812.76
2022-11-03T01:40:21.355Z,99809.34
2022-11-03T01:42:53.374Z,99809.38
2022-11-03T01:45:25.729Z,99802.58
2022-11-03T01:50:31.089Z,99813.83
2022-11-03T01:53:03.711Z,99803.54
2022-11-03T01:55:40.092Z,99807.88
2022-11-03T01:58:24.003Z,99810.47
2022-11-03T02:00:59.546Z,99811.31
2022-11-03T02:03:34.640Z,99804.50
2022-11-03T02:06:07.951Z,99809.70
2022-11-03T02:08:55.026Z,99802.83
2022-11-03T02:11:45.032Z,99801.94
2022-11-03T02:14:17.384Z,99811.37
2022-11-03T02:16:52.251Z,99810.55
2022-11-03T02:19:39.113Z,99795.11
2022-11-03T02:22:29.079Z,99800.30
2022-11-03T02:25:15.980Z,99796.88
2022-11-03T02:27:48.240Z,99791.70
2022-11-03T02:30:20.160Z,99795.98
2022-11-03T02:33:04.212Z,99790.85
2022-11-03T02:35:48.110Z,99790.02
2022-11-03T02:38:21.713Z,99802.05
2022-11-03T02:40:56.497Z,99804.62
2022-11-03T02:43:30.522Z,99806.38
2022-11-03T02:46:04.775Z,99809.03
2022-11-03T02:48:37.382Z,99802.11
2022-11-03T02:51:09.254Z,99813.33
2022-11-03T02:53:44.100Z,99801.28
2022-11-03T02:56:21.838Z,99802.09
2022-11-03T02:58:56.656Z,99801.17
2022-11-03T03:01:39.402Z,99801.95
2022-11-03T03:04:12.798Z,99789.02
2022-11-03T03:06:53.390Z,99794.14
2022-11-03T03:09:28.171Z,99783.80
2022-11-03T03:12:03.554Z,99793.23
2022-11-03T03:14:38.822Z,99797.51
2022-11-03T03:17:16.373Z,99805.23
2022-11-03T03:20:11.016Z,99800.11
2022-11-03T03:22:48.784Z,99800.09
2022-11-03T03:25:29.640Z,99806.16
2022-11-03T03:28:07.450Z,99799.31
2022-11-03T03:30:42.302Z,99807.05
2022-11-03T03:33:16.668Z,99801.04
2022-11-03T03:35:51.730Z,99794.17
2022-11-03T03:38:26.793Z,99805.38
2022-11-03T03:41:05.524Z,99801.06
2022-11-03T03:43:36.964Z,99803.63
2022-11-03T03:46:12.016Z,99797.56
2022-11-03T03:48:44.175Z,99795.81
2022-11-03T03:51:19.065Z,99800.06
2022-11-03T03:53:55.708Z,99808.58
2022-11-03T03:56:39.694Z,99805.09
2022-11-03T03:59:11.921Z,99810.24
2022-11-03T04:01:44.063Z,99810.22
2022-11-03T04:04:16.045Z,99818.89
2022-11-03T04:06:48.505Z,99804.34
2022-11-03T04:09:20.488Z,99803.54
2022-11-03T04:12:10.140Z,99814.72
2022-11-03T04:15:00.030Z,99807.88
2022-11-03T04:17:50.774Z,99821.67
2022-11-03T04:20:40.688Z,99809.70
2022-11-03T04:23:12.863Z,99821.78
2022-11-03T04:25:51.248Z,99815.77
2022-11-03T04:28:23.912Z,99814.94
2022-11-03T04:30:59.042Z,99815.73
2022-11-03T04:33:31.524Z,99807.09
2022-11-03T04:36:05.185Z,99827.70
2022-11-03T04:38:39.186Z,99831.99
2022-11-03T04:41:19.802Z,99833.69
2022-11-03T04:43:52.853Z,99831.08
2022-11-03T04:46:29.790Z,99837.91
2022-11-03T04:49:04.574Z,99827.55
2022-11-03T04:51:36.968Z,99825.76
2022-11-03T04:54:14.467Z,99826.66
2022-11-03T04:56:46.650Z,99825.78
2022-11-03T04:59:19.126Z,99824.89
2022-11-03T05:01:51.593Z,99821.46
2022-11-03T05:04:23.793Z,99823.17
2022-11-03T05:06:56.281Z,99821.41
2022-11-03T05:09:31.355Z,99822.24
2022-11-03T05:12:04.041Z,99821.34
2022-11-03T05:14:37.485Z,99824.72
2022-11-03T05:17:18.177Z,99828.14
2022-11-03T05:19:52.140Z,99831.50
2022-11-03T05:22:25.531Z,99831.48
2022-11-03T05:25:00.217Z,99826.09
2022-11-03T05:27:32.984Z,99833.23
2022-11-03T05:30:08.377Z,99828.14
2022-11-03T05:32:40.710Z,99828.97
2022-11-03T05:35:21.243Z,99836.70
2022-11-03T05:37:53.315Z,99834.17
2022-11-03T05:40:27.322Z,99835.95
2022-11-03T05:43:00.342Z,99826.55
2022-11-03T05:45:38.410Z,99832.32
2022-11-03T05:48:16.293Z,99826.48
2022-11-03T05:50:48.560Z,99836.74
2022-11-03T05:53:32.694Z,99828.94
2022-11-03T05:56:08.291Z,99838.34
2022-11-03T05:58:42.657Z,99835.67
2022-11-03T06:01:18.139Z,99841.65
2022-11-03T06:03:50.409Z,99847.59
2022-11-03T06:06:32.201Z,99844.07
2022-11-03T06:09:08.633Z,99838.81
2022-11-03T06:11:41.759Z,99848.25
2022-11-03T06:14:24.035Z,99850.80
2022-11-03T06:17:01.093Z,99841.24
2022-11-03T06:19:45.087Z,99839.50
2022-11-03T06:22:34.598Z,99843.81
2022-11-03T06:25:16.025Z,99837.83
2022-11-03T06:27:47.814Z,99843.81
2022-11-03T06:30:30.920Z,99846.38
2022-11-03T06:33:17.498Z,99852.41
2022-11-03T06:35:52.189Z,99846.36
2022-11-03T06:38:27.183Z,99846.36
2022-11-03T06:41:00.000Z,99852.32
2022-11-03T06:43:41.241Z,99856.59
2022-11-03T06:46:25.180Z,99858.33
2022-11-03T06:49:04.338Z,99865.99
2022-11-03T06:51:37.806Z,99863.42
2022-11-03T06:54:12.713Z,99860.84
2022-11-03T06:56:45.436Z,99861.64
2022-11-03T06:59:18.979Z,99858.17
2022-11-03T07:01:53.919Z,99856.31
2022-11-03T07:04:29.542Z,99861.33
2022-11-03T07:07:04.103Z,99861.28
2022-11-03T07:09:36.473Z,99860.33
2022-11-03T07:12:11.656Z,99858.41
2022-11-03T07:14:44.260Z,99852.29
2022-11-03T07:17:21.206Z,99848.77
2022-11-03T07:19:53.333Z,99850.39
2022-11-03T07:22:28.408Z,99848.59
2022-11-03T07:25:03.667Z,99850.32
2022-11-03T07:27:38.700Z,99859.74
2022-11-03T07:30:17.630Z,99856.23
2022-11-03T07:32:52.655Z,99861.37
2022-11-03T07:36:08.339Z,99865.63
2022-11-03T07:38:19.501Z,99864.77
2022-11-03T07:40:54.163Z,99868.27
2022-11-03T07:43:32.149Z,99873.47
2022-11-03T07:46:06.141Z,99875.34
2022-11-03T07:48:41.211Z,99876.31
2022-11-03T07:51:28.650Z,99873.72
2022-11-03T07:54:06.189Z,99868.52
2022-11-03T07:56:49.946Z,99874.39
2022-11-03T07:59:34.474Z,99870.89
2022-11-03T08:02:09.443Z,99870.84
2022-11-03T08:04:41.659Z,99871.70
2022-11-03T08:07:13.570Z,99866.55
2022-11-03T08:09:47.219Z,99874.21
2022-11-03T08:12:19.911Z,99864.74
2022-11-03T08:14:51.936Z,99870.70
2022-11-03T08:17:24.344Z,99862.20
2022-11-03T08:19:56.625Z,99863.07
2022-11-03T08:22:28.791Z,99863.09
2022-11-03T08:25:00.906Z,99861.37
2022-11-03T08:27:33.442Z,99859.56
2022-11-03T08:30:05.613Z,99867.28
2022-11-03T08:32:37.722Z,99859.61
2022-11-03T08:35:10.043Z,99864.79
2022-11-03T08:37:42.064Z,99870.77
2022-11-03T08:40:14.492Z,99862.13
2022-11-03T08:42:46.804Z,99863.87
2022-11-03T08:45:19.363Z,99857.89
2022-11-03T08:47:52.028Z,99854.52
2022-11-03T08:50:24.365Z,99852.94
2022-11-03T08:52:57.242Z,99858.06
2022-11-03T08:55:29.794Z,99850.34
2022-11-03T08:58:01.983Z,99855.39
2022-11-03T09:00:40.517Z,99849.28
2022-11-03T09:03:09.978Z,99848.44
2022-11-03T09:05:44.755Z,99847.53
2022-11-03T09:10:52.198Z,99849.98
2022-11-03T09:13:26.152Z,99852.58
2022-11-03T09:15:58.750Z,99854.22
2022-11-03T09:18:31.120Z,99849.91
2022-11-03T09:21:03.519Z,99849.94
2022-11-03T09:23:37.387Z,99856.03
2022-11-03T09:26:12.183Z,99856.92
2022-11-03T09:28:44.878Z,99855.66
2022-11-03T09:31:20.547Z,99859.80
2022-11-03T09:33:53.148Z,99857.03
2022-11-03T09:36:24.535Z,99859.55
2022-11-03T09:38:55.712Z,99851.66
2022-11-03T09:41:52.039Z,99855.05
2022-11-03T09:44:02.297Z,99857.62
2022-11-03T09:46:39.187Z,99855.95
2022-11-03T09:49:12.524Z,99858.66
2022-11-03T09:51:46.695Z,99855.03
2022-11-03T09:54:18.390Z,99860.27
2022-11-03T09:56:49.379Z,99859.38
2022-11-03T09:59:23.324Z,99857.50
2022-11-03T10:01:54.941Z,99860.21
2022-11-03T10:04:30.215Z,99861.91
2022-11-03T10:07:01.268Z,99847.13
2022-11-03T10:09:33.792Z,99847.77
2022-11-03T10:12:05.046Z,99849.25
2022-11-03T10:14:36.442Z,99851.94
2022-11-03T10:17:07.355Z,99851.84
2022-11-03T10:19:38.972Z,99851.57
2022-11-03T10:22:15.333Z,99848.23
2022-11-03T10:24:46.232Z,99850.09
2022-11-03T10:27:25.674Z,99852.08
2022-11-03T10:30:10.195Z,99844.39
2022-11-03T10:32:41.619Z,99850.36
2022-11-03T10:35:30.459Z,99842.52
2022-11-03T10:38:19.646Z,99840.67
2022-11-03T10:40:50.603Z,99848.39
2022-11-03T10:43:21.622Z,99848.39
2022-11-03T10:45:55.777Z,99847.55
2022-11-03T10:48:26.816Z,99843.20
2022-11-03T10:50:58.035Z,99849.34
2022-11-03T10:53:28.848Z,99845.91
2022-11-03T10:55:59.677Z,99845.02
2022-11-03T10:58:32.018Z,99844.19
2022-11-03T11:01:03.073Z,99839.83
2022-11-03T11:03:35.455Z,99844.06
2022-11-03T11:06:06.472Z,99849.97
2022-11-03T11:08:38.523Z,99838.70
2022-11-03T11:11:10.059Z,99842.98
2022-11-03T11:13:42.106Z,99852.53
2022-11-03T11:16:30.804Z,99841.30
2022-11-03T11:19:02.469Z,99837.89
2022-11-03T11:21:41.091Z,99842.39
2022-11-03T11:24:12.514Z,99839.92
2022-11-03T11:26:45.211Z,99843.50
2022-11-03T11:29:19.289Z,99840.10
2022-11-03T11:31:50.531Z,99837.73
2022-11-03T11:34:23.730Z,99847.13
2022-11-03T11:36:59.023Z,99849.84
2022-11-03T11:39:31.373Z,99843.09
2022-11-03T11:42:13.779Z,99846.66
2022-11-03T11:44:46.621Z,99847.59
2022-11-03T11:47:33.888Z,99851.99
2022-11-03T11:50:12.836Z,99846.86
2022-11-03T11:52:45.967Z,99844.30
2022-11-03T11:55:27.196Z,99842.66
2022-11-03T11:57:59.965Z,99844.44
2022-11-03T12:00:32.267Z,99841.82
2022-11-03T12:03:04.585Z,99844.44
2022-11-03T12:05:36.588Z,99844.44
2022-11-03T12:08:20.284Z,99849.53
2022-11-03T12:10:55.425Z,99845.16
2022-11-03T12:13:44.894Z,99852.05
2022-11-03T12:16:35.553Z,99846.91
2022-11-03T12:19:24.390Z,99848.59
2022-11-03T12:21:55.888Z,99846.91
2022-11-03T12:24:34.054Z,99853.05
2022-11-03T12:27:06.628Z,99853.05
2022-11-03T12:29:37.748Z,99847.80
2022-11-03T12:32:25.566Z,99848.53
2022-11-03T12:34:42.058Z,99851.91
2022-11-03T12:37:13.443Z,99846.89
2022-11-03T12:39:44.342Z,99844.24
2022-11-03T12:42:15.616Z,99844.30
2022-11-03T12:44:47.107Z,99843.59
2022-11-03T12:47:18.328Z,99843.71
2022-11-03T12:49:50.773Z,99849.77
2022-11-03T12:52:21.821Z,99842.06
2022-11-03T12:54:52.884Z,99853.20
2022-11-03T12:57:23.724Z,99853.98
2022-11-03T12:59:55.050Z,99858.22
2022-11-03T13:02:26.617Z,99846.14
2022-11-03T13:04:57.868Z,99858.25
2022-11-03T13:07:34.329Z,99852.12
2022-11-03T13:10:02.158Z,99850.59
2022-11-03T13:12:33.125Z,99848.02
2022-11-03T13:15:05.540Z,99851.56
2022-11-03T13:17:52.374Z,99845.64
2022-11-03T13:22:41.224Z,99856.19
2022-11-03T13:25:12.536Z,99854.56
2022-11-03T13:27:43.448Z,99857.98
2022-11-03T13:30:14.542Z,99853.84
2022-11-03T13:32:47.869Z,99858.33
2022-11-03T13:35:19.245Z,99856.70
2022-11-03T13:37:50.347Z,99857.61
2022-11-03T13:42:54.039Z,99869.64
2022-11-03T13:45:25.029Z,99867.88
2022-11-03T13:48:47.495Z,99869.63
2022-11-03T13:50:30.285Z,99869.67
2022-11-03T14:00:39.198Z,99876.58
2022-11-03T14:05:42.441Z,99874.23
2022-11-03T14:08:13.318Z,99875.98
2022-11-03T14:10:44.098Z,99873.45
2022-11-03T14:13:14.965Z,99881.25
2022-11-03T14:15:45.784Z,99873.66
2022-11-03T14:18:18.381Z,99877.07
2022-11-03T14:20:49.376Z,99880.56
2022-11-03T14:23:20.457Z,99876.16
2022-11-03T14:26:00.490Z,99875.23
2022-11-03T14:28:26.215Z,99873.50
2022-11-03T14:30:57.967Z,99877.73
2022-11-03T14:33:29.047Z,99871.63
2022-11-03T14:36:00.407Z,99871.59
2022-11-03T14:38:31.303Z,99869.75
2022-11-03T14:41:20.144Z,99871.30
2022-11-03T14:43:50.993Z,99864.55
2022-11-03T14:46:21.991Z,99874.95
2022-11-03T14:48:55.044Z,99869.77
2022-11-03T14:51:26.267Z,99875.86
2022-11-03T14:53:57.741Z,99869.86
2022-11-03T14:56:28.984Z,99877.72
2022-11-03T14:58:59.854Z,99878.63
2022-11-03T15:01:30.995Z,99881.16
2022-11-03T15:04:01.979Z,99878.51
2022-11-03T15:06:33.075Z,99880.17
2022-11-03T15:09:04.845Z,99880.02
2022-11-03T15:11:37.032Z,99882.69
2022-11-03T15:14:08.624Z,99884.44
2022-11-03T15:16:40.162Z,99875.76
2022-11-03T15:19:11.366Z,99876.69
2022-11-03T15:21:42.406Z,99881.94
2022-11-03T15:26:46.099Z,99883.64
2022-11-03T15:29:16.902Z,99887.12
2022-11-03T15:31:48.617Z,99885.41
2022-11-03T15:34:19.731Z,99885.38
2022-11-03T15:36:50.724Z,99882.77
2022-11-03T15:39:22.458Z,99883.69
2022-11-03T15:41:55.062Z,99885.36
2022-11-03T15:44:26.960Z,99885.34
2022-11-03T15:46:58.268Z,99887.91
2022-11-03T15:49:29.317Z,99889.61
2022-11-03T15:52:00.339Z,99881.84
2022-11-03T15:54:31.203Z,99881.89
2022-11-03T15:57:02.005Z,99880.94
2022-11-03T15:59:33.047Z,99883.48
2022-11-03T16:02:14.128Z,99875.83
2022-11-03T16:04:36.672Z,99877.58
2022-11-03T16:07:08.886Z,99877.58
2022-11-03T16:09:40.220Z,99882.69
2022-11-03T16:12:11.852Z,99881.83
2022-11-03T16:14:42.753Z,99874.95
2022-11-03T16:17:14.098Z,99877.48
2022-11-03T16:19:45.057Z,99876.63
2022-11-03T16:22:16.324Z,99876.63
2022-11-03T16:24:48.887Z,99877.44
2022-11-03T16:27:19.969Z,99880.08
2022-11-03T16:29:51.098Z,99879.19
2022-11-03T16:32:21.969Z,99882.56
2022-11-03T16:34:52.756Z,99874.83
2022-11-03T16:37:25.141Z,99882.59
2022-11-03T16:39:56.058Z,99885.17
2022-11-03T16:42:27.695Z,99886.13
2022-11-03T16:45:00.037Z,99882.69
2022-11-03T16:47:32.775Z,99884.37
2022-11-03T16:50:04.090Z,99885.17
2022-11-03T16:52:35.545Z,99889.52
2022-11-03T16:55:06.954Z,99883.36
2022-11-03T16:57:38.200Z,99885.17
2022-11-03T17:00:12.360Z,99881.83
2022-11-03T17:02:43.500Z,99876.64
2022-11-03T17:05:15.695Z,99881.86
2022-11-03T17:07:52.903Z,99884.48
2022-11-03T17:10:19.467Z,99886.21
2022-11-03T17:12:50.616Z,99882.73
2022-11-03T17:15:21.397Z,99882.69
2022-11-03T17:17:52.411Z,99883.50
2022-11-03T17:20:23.315Z,99890.31
2022-11-03T17:22:55.780Z,99887.58
2022-11-03T17:25:26.673Z,99881.61
2022-11-03T17:27:58.969Z,99884.25
2022-11-03T17:30:31.349Z,99880.83
2022-11-03T17:33:03.881Z,99875.52
2022-11-03T17:35:39.209Z,99877.37
2022-11-03T17:38:11.790Z,99883.44
2022-11-03T17:40:44.115Z,99879.98
2022-11-03T17:43:22.830Z,99875.69
2022-11-03T17:45:53.889Z,99886.79
2022-11-03T17:48:25.605Z,99881.66
2022-11-03T17:50:57.041Z,99878.30
2022-11-03T17:53:30.191Z,99876.63
2022-11-03T17:56:27.965Z,99880.13
2022-11-03T17:58:35.432Z,99881.83
2022-11-03T18:01:07.096Z,99888.80
2022-11-03T18:03:38.673Z,99885.34
2022-11-03T18:06:11.621Z,99871.61
2022-11-03T18:08:42.521Z,99874.17
2022-11-03T18:11:16.430Z,99876.69
2022-11-03T18:13:48.394Z,99881.89
2022-11-03T18:16:19.134Z,99875.92
2022-11-03T18:18:49.937Z,99881.14
2022-11-03T18:21:22.342Z,99884.59
2022-11-03T18:23:53.335Z,99883.86
2022-11-03T18:26:25.953Z,99884.81
2022-11-03T18:28:56.877Z,99889.98
2022-11-03T18:31:35.683Z,99881.44
2022-11-03T18:34:09.491Z,99881.34
2022-11-03T18:36:40.681Z,99878.80
2022-11-03T18:39:13.039Z,99887.44
2022-11-03T18:41:57.192Z,99890.10
2022-11-03T18:44:29.740Z,99882.36
2022-11-03T18:47:00.633Z,99885.74
2022-11-03T18:49:33.415Z,99877.95
2022-11-03T18:52:14.771Z,99881.34
2022-11-03T18:54:46.744Z,99877.92
2022-11-03T18:57:19.188Z,99877.03
2022-11-03T18:59:50.554Z,99877.07
2022-11-03T19:02:22.512Z,99877.95
2022-11-03T19:04:54.390Z,99877.05
2022-11-03T19:07:32.291Z,99874.46
2022-11-03T19:10:07.035Z,99880.48
2022-11-03T19:12:39.294Z,99871.90
2022-11-03T19:15:11.839Z,99873.66
2022-11-03T19:17:42.606Z,99875.31
2022-11-03T19:20:14.503Z,99870.91
2022-11-03T19:22:45.918Z,99872.63
2022-11-03T19:25:18.837Z,99861.44
2022-11-03T19:27:50.435Z,99863.16
2022-11-03T19:30:21.633Z,99866.50
2022-11-03T19:32:54.044Z,99861.37
2022-11-03T19:35:26.515Z,99865.69
2022-11-03T19:38:01.979Z,99868.20
2022-11-03T19:40:33.996Z,99866.64
2022-11-03T19:43:06.282Z,99870.06
2022-11-03T19:45:37.009Z,99869.06
2022-11-03T19:48:23.636Z,99866.62
2022-11-03T19:50:41.248Z,99864.96
2022-11-03T19:53:13.465Z,99860.55
2022-11-03T19:55:44.432Z,99876.22
2022-11-03T19:58:17.073Z,99873.73
2022-11-03T20:00:48.326Z,99873.73
2022-11-03T20:03:19.399Z,99870.95
2022-11-03T20:05:51.651Z,99861.52
2022-11-03T20:08:24.125Z,99857.17
2022-11-03T20:10:54.821Z,99855.42
2022-11-03T20:13:27.041Z,99861.47
2022-11-03T20:16:00.957Z,99848.50
2022-11-03T20:18:30.217Z,99865.73
2022-11-03T20:21:01.517Z,99855.44
2022-11-03T20:23:33.990Z,99856.35
2022-11-03T20:26:05.149Z,99858.20
2022-11-03T20:28:36.984Z,99853.96
2022-11-03T20:31:08.081Z,99854.87
2022-11-03T20:33:38.951Z,99856.55
2022-11-03T20:36:14.167Z,99862.61
2022-11-03T20:38:46.597Z,99853.12
2022-11-03T20:41:17.706Z,99861.69
2022-11-03T20:43:49.799Z,99851.30
2022-11-03T20:46:24.849Z,99851.27
2022-11-03T20:48:56.099Z,99851.16
2022-11-03T20:51:28.576Z,99853.72
2022-11-03T20:53:59.591Z,99849.36
2022-11-03T20:56:30.445Z,99851.11
2022-11-03T20:59:01.644Z,99852.88
2022-11-03T21:01:34.483Z,99851.17
2022-11-03T21:04:07.128Z,99852.00
2022-11-03T21:06:37.868Z,99857.98
2022-11-03T21:09:13.114Z,99854.53
2022-11-03T21:11:44.805Z,99860.62
2022-11-03T21:14:17.037Z,99856.31
2022-11-03T21:17:05.916Z,99858.01
2022-11-03T21:19:54.786Z,99857.22
2022-11-03T21:25:07.485Z,99858.96
2022-11-03T21:27:41.753Z,99855.52
2022-11-03T21:30:12.612Z,99859.08
2022-11-03T21:32:43.513Z,99855.72
2022-11-03T21:35:15.814Z,99858.23
2022-11-03T21:37:46.753Z,99857.45
2022-11-03T21:40:17.990Z,99846.18
2022-11-03T21:43:07.440Z,99847.13
2022-11-03T21:45:38.364Z,99850.64
2022-11-03T21:48:27.088Z,99845.58
2022-11-03T21:51:02.417Z,99852.52
2022-11-03T21:53:33.178Z,99850.80
2022-11-03T21:56:03.977Z,99861.08
2022-11-03T21:58:35.173Z,99856.76
2022-11-03T22:01:06.361Z,99846.39
2022-11-03T22:03:37.663Z,99854.08
2022-11-03T22:06:09.651Z,99850.72
2022-11-03T22:08:40.754Z,99859.34
2022-11-03T22:11:16.264Z,99856.81
2022-11-03T22:13:47.150Z,99846.47
2022-11-03T22:16:35.688Z,99840.37
2022-11-03T22:19:28.308Z,99845.45
2022-11-03T22:22:17.518Z,99841.14
2022-11-03T22:24:58.990Z,99827.32
2022-11-03T22:27:30.566Z,99831.59
2022-11-03T22:30:19.062Z,99830.64
2022-11-03T22:32:54.153Z,99833.16
2022-11-03T22:35:42.971Z,99836.62
2022-11-03T22:38:14.830Z,99832.27
2022-11-03T22:41:04.937Z,99838.41
2022-11-03T22:43:53.570Z,99831.59
2022-11-03T22:46:25.229Z,99829.09
2022-11-03T22:48:56.853Z,99839.48
2022-11-03T22:51:27.806Z,99836.05
2022-11-03T22:54:13.683Z,99836.90
2022-11-03T22:56:44.793Z,99835.20
2022-11-03T22:59:16.477Z,99838.71
2022-11-03T23:01:47.399Z,99835.30
2022-11-03T23:04:18.354Z,99834.48
2022-11-03T23:06:49.195Z,99838.73
2022-11-03T23:09:19.884Z,99839.56
2022-11-03T23:11:50.603Z,99843.03
2022-11-03T23:14:21.624Z,99848.25
2022-11-03T23:16:52.678Z,99848.31
2022-11-03T23:19:41.253Z,99846.55
2022-11-03T23:22:12.113Z,99850.00
2022-11-03T23:25:01.182Z,99855.19
2022-11-03T23:27:32.127Z,99855.19
2022-11-03T23:30:03.276Z,99850.02
2022-11-03T23:32:34.092Z,99848.34
2022-11-03T23:35:05.045Z,99850.91
2022-11-03T23:37:35.943Z,99848.31
2022-11-03T23:40:07.096Z,99859.50
2022-11-03T23:42:38.085Z,99854.34
2022-11-03T23:45:26.888Z,99853.42
2022-11-03T23:48:15.618Z,99853.48
2022-11-03T23:50:46.597Z,99856.89
2022-11-03T23:53:18.459Z,99856.93
2022-11-03T23:56:07.640Z,99856.93
2022-11-03T23:58:38.503Z,99858.70
